Racecast

Erin Johl

Folsom (CA) · 12 · SFLCA D1SJS D1YOLO · Compare head to head

Athlete rating 106.1 2013 XC season
Best race 106.2 XC
Races 43
Seasons 3 2012 — 2014

RankedNation #51042·CA #6578·CA D1 #3134·SJS #617·SJS D1 #432·SFL #141·Team #26 ?

Speed rating — all races

Cross Country

XC speed rating

2013 XC 104.1

Folsom (CA) · Grade 12

Date Meet Event Result Place Rating Difficulty PR/SR Flags
2013-11-02 Willow Hills Reservoir Course 5000m 24:16 44th · 8th on team 106.2 +0.045 ★CR ★R CSR RSR
2013-10-18 Ancil Hoffman Park 5000m 23:59.4 41st · 6th on team 105.8 +0.029 ★CR CSR
2013-10-09 Granite Park 5000m 23:18 43rd · 6th on team 106.1 +0.002 ★PR ★CR R SR CSR RSR
2013-09-07 Willow Hills Reservoir Course 5000m 25:27.2 33rd · 6th on team 102.1 +0.045 PR CR R SR CSR RSR
2013-08-31 Maidu Park 4000m 19:05 59th · 5th on team 100.3 -0.013 ★PR ★CR R SR CSR RSR

2012 XC 91.1

Folsom (CA) · Grade 11

Date Meet Event Result Place Rating Difficulty PR/SR Flags
2012-10-27 Willow Hills Reservoir Course 5000m 27:42 60th · 5th on team 93.5 +0.045 PR CR R SR CSR RSR
2012-10-17 Granite Park 5000m 28:00 72nd · 4th on team 88.7 +0.002 PR CR R SR CSR RSR
2012-09-08 Granite Park 3218m 18:35 35th · 1st on team -0.013 ★PR ★CR SR CSR

Track & Field

TF speed rating

2014 TF

Folsom (CA) · Grade 12

Date Meet Event Result Place Rating Difficulty PR/SR Flags
2014-05-16 DRL Finals (F/S & Varsity) 200m 27.5 13th · 3rd on team -0.018
2014-05-16 DRL Finals (F/S & Varsity) 200m 27.33 11th · 1st on team -0.018
2014-05-16 DRL Finals (F/S & Varsity) 400m 1:02.3 14th · 6th on team -0.018
2014-05-16 DRL Finals (F/S & Varsity) 400m 1:02.13 13th · 5th on team -0.018
2014-05-10 DRL League Trials (F/S & Varsity) 200m 27.33 6th · 1st on team -0.018
2014-05-10 DRL League Trials (F/S & Varsity) 400m 1:02.13 7th · 3rd on team -0.018
2014-04-23 DRL: Oak Ridge, Folsom, Jesuit, St. Fran 200m 27.34 4th · 2nd on team -0.034
2014-04-23 DRL: Oak Ridge, Folsom, Jesuit, St. Fran 400m 1:02.82 5th · 3rd on team -0.034
2014-04-11 DelOro Invite 400m 1:01.8 9th · 1st on team -0.024
2014-04-09 DRL Dual: Sheldon vs Folsom 400m 1:01.54 1st · 1st on team -0.021 ★PR SR
2014-04-02 DRL Dual: Folsom vs Ponderosa 200m 26.94 2nd · 2nd on team -0.022 ★PR SR
2014-04-02 DRL Dual: Folsom vs Ponderosa 400m 1:02.14 2nd · 2nd on team -0.022 PR SR
2014-03-15 Folsom Depth Charge 400m 1:03.04 8th · 2nd on team -0.021 PR SR
2014-03-08 King/Gilbert Invitational 400m 1:03.65 10th · 2nd on team -0.027 PR SR
2014-03-08 King/Gilbert Invitational 200m 27.97 9th · 1st on team -0.027 PR SR
2014-03-01 Capital Classic Relays 400m 1:06.1 13th · 2nd on team -0.033
2014-02-22 Intrasquad 400m 1:04.84 1st · 1st on team -0.021 PR SR

2013 TF

Folsom (CA) · Grade 11

Date Meet Event Result Place Rating Difficulty PR/SR Flags
2013-05-10 DRL Varsity Championships 200m 29.31 19th · 2nd on team -0.031
2013-05-10 DRL Varsity Championships 400m 1:05.45 12th · 1st on team -0.031 PR SR
2013-05-03 Nevada Union Invitational 100m 14.43 38th · 2nd on team -0.015
2013-04-24 Jesuit/St. Francis, Folsom vs. Oak Ridge 200m 28.92 10th · 2nd on team -0.018 PR SR
2013-04-24 Jesuit/St. Francis, Folsom vs. Oak Ridge 400m 1:07.15 7th · 2nd on team -0.018 PR SR
2013-04-19 45th Annual Del Oro Invite 200m 29.53 41st · 1st on team -0.024 PR SR
2013-04-19 45th Annual Del Oro Invite 100m 14.5 43rd · 1st on team -0.024
2013-04-17 Ponderosa vs Folsom 200m 29.54 5th · 3rd on team -0.021
2013-04-17 Ponderosa vs Folsom 100m 14.14 7th · 2nd on team -0.021 ★PR SR
2013-04-10 Folsom vs Pleasant Grove 200m 29.54 2nd · 2nd on team -0.021 PR SR
2013-04-10 Folsom vs Pleasant Grove 400m 1:07.84 1st · 1st on team -0.021 PR SR
2013-04-06 Thunder Invitational 200m 29.99 39th · 1st on team -0.024 PR SR
2013-04-06 Thunder Invitational 400m 1:08.43 36th · 1st on team -0.024
2013-03-20 Sheldon vs Folsom 400m 1:08.74 1st · 1st on team -0.021
2013-03-20 Sheldon vs Folsom 100m 15.04 2nd · 2nd on team -0.021 PR SR
2013-03-20 Sheldon vs Folsom 200m 30.94 2nd · 2nd on team -0.021
2013-03-16 Depth Charge 400m 1:08.35 16th · 1st on team -0.021 PR SR
2013-03-16 Depth Charge 200m 30.49 16th · 2nd on team -0.021 PR SR